createdAt,value
2018-06-14T00:00:23.181Z,99109.44
2018-06-14T00:02:53.643Z,99103.63
2018-06-14T00:05:24.116Z,99114.78
2018-06-14T00:07:55.822Z,99108.48
2018-06-14T00:10:26.261Z,99112.96
2018-06-14T00:12:56.573Z,99119.58
2018-06-14T00:15:26.927Z,99112.39
2018-06-14T00:17:57.261Z,99108.73
2018-06-14T00:20:27.589Z,99117.48
2018-06-14T00:23:03.653Z,99119.53
2018-06-14T00:25:47.181Z,99120.86
2018-06-14T00:28:40.497Z,99126.11
2018-06-14T00:31:10.938Z,99122.20
2018-06-14T00:33:41.285Z,99133.33
2018-06-14T00:36:11.711Z,99129.36
2018-06-14T00:38:43.425Z,99135.24
2018-06-14T00:41:13.869Z,99131.39
2018-06-14T00:43:44.424Z,99133.59
2018-06-14T00:46:14.812Z,99123.19
2018-06-14T00:48:48.249Z,99123.36
2018-06-14T00:51:18.642Z,99121.52
2018-06-14T00:53:49.059Z,99127.25
2018-06-14T00:56:19.173Z,99125.75
2018-06-14T00:58:49.649Z,99123.75
2018-06-14T01:01:20.102Z,99121.09
2018-06-14T01:03:50.487Z,99119.48
2018-06-14T01:06:20.980Z,99111.47
2018-06-14T01:08:54.573Z,99117.22
2018-06-14T01:11:24.936Z,99102.78
2018-06-14T01:13:56.037Z,99100.79
2018-06-14T01:16:26.471Z,99088.67
2018-06-14T01:18:56.863Z,99081.77
2018-06-14T01:21:27.306Z,99069.72
2018-06-14T01:23:57.586Z,99071.81
2018-06-14T01:26:28.032Z,99067.84
2018-06-14T01:29:01.965Z,99068.55
2018-06-14T01:31:32.383Z,99066.28
2018-06-14T01:34:02.692Z,99071.27
2018-06-14T01:36:32.924Z,99073.89
2018-06-14T01:39:03.703Z,99081.02
2018-06-14T01:41:34.144Z,99079.42
2018-06-14T01:44:04.468Z,99088.02
2018-06-14T01:46:34.813Z,99090.59
2018-06-14T01:49:08.700Z,99087.69
2018-06-14T01:51:39.176Z,99088.23
2018-06-14T01:54:09.178Z,99084.95
2018-06-14T01:56:39.566Z,99093.64
2018-06-14T01:59:13.036Z,99102.52
2018-06-14T02:01:43.526Z,99119.23
2018-06-14T02:04:13.834Z,99123.25
2018-06-14T02:06:44.244Z,99126.68
2018-06-14T02:09:18.136Z,99115.40
2018-06-14T02:11:48.350Z,99102.84
2018-06-14T02:14:18.808Z,99111.47
2018-06-14T02:16:49.085Z,99135.88
2018-06-14T02:19:23.574Z,99115.95
2018-06-14T02:21:54.002Z,99103.42
2018-06-14T02:24:24.467Z,99095.95
2018-06-14T02:26:54.913Z,99104.28
2018-06-14T02:29:28.958Z,99110.67
2018-06-14T02:31:59.273Z,99112.95
2018-06-14T02:34:29.593Z,99109.55
2018-06-14T02:36:59.816Z,99119.92
2018-06-14T02:39:33.353Z,99128.43
2018-06-14T02:42:03.609Z,99128.21
2018-06-14T02:44:33.616Z,99121.72
2018-06-14T02:47:03.911Z,99126.10
2018-06-14T02:49:37.821Z,99132.80
2018-06-14T02:52:08.198Z,99136.95
2018-06-14T02:54:38.609Z,99129.84
2018-06-14T02:57:08.944Z,99122.75
2018-06-14T02:59:39.249Z,99127.12
2018-06-14T03:02:09.740Z,99127.42
2018-06-14T03:04:40.124Z,99139.91
2018-06-14T03:07:10.545Z,99143.48
2018-06-14T03:09:41.008Z,99141.39
2018-06-14T03:12:11.464Z,99129.45
2018-06-14T03:14:41.898Z,99124.36
2018-06-14T03:17:12.417Z,99125.27
2018-06-14T03:19:42.819Z,99131.19
2018-06-14T03:22:13.016Z,99134.25
2018-06-14T03:24:43.493Z,99143.43
2018-06-14T03:27:17.863Z,99145.11
2018-06-14T03:29:48.267Z,99147.91
2018-06-14T03:32:18.337Z,99143.13
2018-06-14T03:34:48.693Z,99140.02
2018-06-14T03:37:19.160Z,99143.75
2018-06-14T03:39:49.645Z,99151.73
2018-06-14T03:42:20.044Z,99151.39
2018-06-14T03:44:50.408Z,99148.09
2018-06-14T03:47:23.863Z,99146.08
2018-06-14T03:49:54.221Z,99144.18
2018-06-14T03:52:24.650Z,99142.83
2018-06-14T03:54:54.974Z,99145.22
2018-06-14T03:57:31.122Z,99143.61
2018-06-14T04:00:01.365Z,99142.17
2018-06-14T04:02:31.681Z,99142.98
2018-06-14T04:05:01.953Z,99143.23
2018-06-14T04:07:32.481Z,99145.13
2018-06-14T04:10:02.969Z,99140.15
2018-06-14T04:12:33.160Z,99143.52
2018-06-14T04:15:03.628Z,99142.48
2018-06-14T04:17:35.123Z,99151.11
2018-06-14T04:20:05.429Z,99150.36
2018-06-14T04:22:35.773Z,99153.34
2018-06-14T04:25:06.150Z,99151.06
2018-06-14T04:27:40.996Z,99146.36
2018-06-14T04:30:11.467Z,99147.66
2018-06-14T04:32:41.870Z,99144.09
2018-06-14T04:35:12.317Z,99144.61
2018-06-14T04:37:42.679Z,99145.39
2018-06-14T04:40:13.130Z,99132.94
2018-06-14T04:42:43.404Z,99133.34
2018-06-14T04:45:13.702Z,99140.75
2018-06-14T04:47:45.283Z,99141.69
2018-06-14T04:50:15.721Z,99142.58
2018-06-14T04:52:46.118Z,99148.73
2018-06-14T04:55:16.478Z,99143.95
2018-06-14T04:57:49.829Z,99148.73
2018-06-14T05:00:20.522Z,99153.56
2018-06-14T05:02:51.032Z,99163.11
2018-06-14T05:05:21.282Z,99159.70
2018-06-14T05:07:51.850Z,99166.14
2018-06-14T05:10:22.165Z,99161.06
2018-06-14T05:12:52.596Z,99159.73
2018-06-14T05:15:22.773Z,99157.66
2018-06-14T05:17:53.817Z,99162.10
2018-06-14T05:20:24.162Z,99166.38
2018-06-14T05:22:54.537Z,99167.31
2018-06-14T05:25:24.965Z,99159.75
2018-06-14T05:27:55.925Z,99159.95
2018-06-14T05:30:26.277Z,99166.59
2018-06-14T05:32:56.703Z,99160.31
2018-06-14T05:35:26.788Z,99166.56
2018-06-14T05:38:00.896Z,99166.95
2018-06-14T05:40:31.134Z,99174.80
2018-06-14T05:43:01.463Z,99176.30
2018-06-14T05:45:31.702Z,99168.64
2018-06-14T05:48:02.055Z,99169.20
2018-06-14T05:50:32.432Z,99167.56
2018-06-14T05:53:02.795Z,99166.67
2018-06-14T05:55:33.132Z,99172.20
2018-06-14T05:58:06.937Z,99172.88
2018-06-14T06:00:37.279Z,99173.23
2018-06-14T06:03:07.667Z,99168.08
2018-06-14T06:05:37.879Z,99168.77
2018-06-14T06:08:12.102Z,99164.23
2018-06-14T06:10:42.497Z,99174.00
2018-06-14T06:13:13.036Z,99178.05
2018-06-14T06:15:43.273Z,99172.80
2018-06-14T06:18:13.794Z,99174.75
2018-06-14T06:20:44.001Z,99165.77
2018-06-14T06:23:14.364Z,99168.34
2018-06-14T06:25:44.667Z,99176.97
2018-06-14T06:28:19.068Z,99176.61
2018-06-14T06:30:49.322Z,99178.63
2018-06-14T06:33:19.819Z,99168.83
2018-06-14T06:35:49.920Z,99158.16
2018-06-14T06:38:20.347Z,99158.12
2018-06-14T06:40:50.797Z,99163.94
2018-06-14T06:43:21.186Z,99159.73
2018-06-14T06:45:51.629Z,99166.23
2018-06-14T06:48:34.021Z,99165.31
2018-06-14T06:51:04.570Z,99165.80
2018-06-14T06:53:34.942Z,99165.61
2018-06-14T06:56:05.269Z,99162.56
2018-06-14T06:58:36.896Z,99162.25
2018-06-14T07:01:07.282Z,99165.97
2018-06-14T07:03:37.585Z,99168.63
2018-06-14T07:06:07.919Z,99163.55
2018-06-14T07:08:38.163Z,99171.26
2018-06-14T07:11:08.418Z,99166.84
2018-06-14T07:13:38.809Z,99167.77
2018-06-14T07:16:09.277Z,99162.19
2018-06-14T07:18:41.216Z,99163.95
2018-06-14T07:21:11.679Z,99162.94
2018-06-14T07:23:42.039Z,99166.18
2018-06-14T07:26:12.241Z,99173.45
2018-06-14T07:28:43.734Z,99167.42
2018-06-14T07:31:14.055Z,99177.19
2018-06-14T07:33:44.450Z,99180.13
2018-06-14T07:36:14.887Z,99177.39
2018-06-14T07:38:49.014Z,99181.67
2018-06-14T07:41:23.393Z,99189.16
2018-06-14T07:43:53.810Z,99188.13
2018-06-14T07:46:24.196Z,99191.84
2018-06-14T07:48:56.031Z,99187.63
2018-06-14T07:51:26.385Z,99184.58
2018-06-14T07:53:56.687Z,99184.38
2018-06-14T07:56:27.061Z,99188.28
2018-06-14T07:58:57.506Z,99194.31
2018-06-14T08:01:27.881Z,99184.81
2018-06-14T08:03:58.266Z,99191.56
2018-06-14T08:06:32.759Z,99194.01
2018-06-14T08:09:02.925Z,99205.39
2018-06-14T08:11:33.518Z,99204.55
2018-06-14T08:14:03.742Z,99211.21
2018-06-14T08:16:38.031Z,99212.11
2018-06-14T08:19:08.462Z,99220.42
2018-06-14T08:21:38.929Z,99213.92
2018-06-14T08:24:09.180Z,99214.39
2018-06-14T08:26:43.546Z,99221.38
2018-06-14T08:29:13.893Z,99222.42
2018-06-14T08:31:44.345Z,99226.23
2018-06-14T08:34:14.853Z,99230.63
2018-06-14T08:36:46.362Z,99228.31
2018-06-14T08:39:16.807Z,99236.17
2018-06-14T08:41:47.251Z,99222.81
2018-06-14T08:44:17.857Z,99225.33
2018-06-14T08:46:52.662Z,99229.66
2018-06-14T08:49:23.430Z,99231.25
2018-06-14T08:51:53.956Z,99227.97
2018-06-14T08:54:24.591Z,99224.31
2018-06-14T08:57:00.706Z,99226.95
2018-06-14T08:59:31.024Z,99224.02
2018-06-14T09:02:01.303Z,99223.28
2018-06-14T09:04:31.754Z,99235.12
2018-06-14T09:07:02.350Z,99232.80
2018-06-14T09:09:32.641Z,99233.87
2018-06-14T09:12:03.003Z,99232.70
2018-06-14T09:14:33.261Z,99228.95
2018-06-14T09:17:03.273Z,99238.88
2018-06-14T09:19:33.851Z,99238.55
2018-06-14T09:22:04.428Z,99241.66
2018-06-14T09:24:34.718Z,99230.45
2018-06-14T09:27:04.889Z,99231.73
2018-06-14T09:29:35.991Z,99237.60
2018-06-14T09:32:06.414Z,99232.58
2018-06-14T09:34:36.902Z,99239.22
2018-06-14T09:37:07.605Z,99237.40
2018-06-14T09:39:38.776Z,99236.13
2018-06-14T09:42:09.166Z,99233.72
2018-06-14T09:44:39.419Z,99241.17
2018-06-14T09:47:09.966Z,99236.05
2018-06-14T09:49:40.392Z,99236.09
2018-06-14T09:52:10.633Z,99232.72
2018-06-14T09:54:40.990Z,99227.68
2018-06-14T09:57:11.626Z,99224.81
2018-06-14T09:59:42.180Z,99228.74
2018-06-14T10:02:13.563Z,99225.91
2018-06-14T10:04:44.390Z,99223.44
2018-06-14T10:07:16.813Z,99223.67
2018-06-14T10:09:47.164Z,99221.03
2018-06-14T10:12:17.312Z,99223.15
2018-06-14T10:14:47.757Z,99215.56
2018-06-14T10:17:21.490Z,99216.67
2018-06-14T10:19:51.931Z,99223.69
2018-06-14T10:22:23.378Z,99220.61
2018-06-14T10:24:54.435Z,99211.02
2018-06-14T10:27:30.554Z,99216.16
2018-06-14T10:30:00.986Z,99219.61
2018-06-14T10:32:31.474Z,99217.96
2018-06-14T10:35:01.834Z,99214.52
2018-06-14T10:37:35.419Z,99221.06
2018-06-14T10:40:05.797Z,99211.94
2018-06-14T10:42:36.200Z,99210.23
2018-06-14T10:45:06.451Z,99212.28
2018-06-14T10:47:36.912Z,99213.20
2018-06-14T10:50:07.427Z,99213.89
2018-06-14T10:52:37.677Z,99216.42
2018-06-14T10:55:07.982Z,99207.25
2018-06-14T10:57:42.163Z,99199.84
2018-06-14T11:00:14.124Z,99202.36
2018-06-14T11:02:44.410Z,99203.98
2018-06-14T11:05:14.879Z,99196.46
2018-06-14T11:07:48.824Z,99200.28
2018-06-14T11:10:21.341Z,99194.54
2018-06-14T11:12:51.807Z,99202.12
2018-06-14T11:15:24.839Z,99196.27
2018-06-14T11:17:58.570Z,99193.19
2018-06-14T11:20:28.848Z,99183.72
2018-06-14T11:22:59.177Z,99181.54
2018-06-14T11:25:29.622Z,99182.73
2018-06-14T11:28:05.737Z,99182.47
2018-06-14T11:30:36.370Z,99179.41
2018-06-14T11:33:06.623Z,99179.89
2018-06-14T11:35:37.007Z,99184.86
2018-06-14T11:38:07.644Z,99180.67
2018-06-14T11:40:38.189Z,99173.60
2018-06-14T11:43:08.464Z,99174.23
2018-06-14T11:45:39.033Z,99170.41
2018-06-14T11:48:09.298Z,99163.45
2018-06-14T11:50:39.444Z,99167.31
2018-06-14T11:53:09.676Z,99160.69
2018-06-14T11:55:40.090Z,99165.59
2018-06-14T11:58:14.273Z,99165.49
2018-06-14T12:00:44.717Z,99161.54
2018-06-14T12:03:14.991Z,99158.51
2018-06-14T12:05:45.306Z,99164.52
2018-06-14T12:08:18.872Z,99151.59
2018-06-14T12:10:49.196Z,99157.45
2018-06-14T12:13:19.656Z,99155.56
2018-06-14T12:15:49.945Z,99148.93
2018-06-14T12:18:20.253Z,99149.77
2018-06-14T12:20:50.703Z,99155.53
2018-06-14T12:23:21.056Z,99146.48
2018-06-14T12:25:51.450Z,99142.25
2018-06-14T12:28:21.829Z,99139.30
2018-06-14T12:30:52.256Z,99140.67
2018-06-14T12:33:22.674Z,99140.94
2018-06-14T12:35:55.939Z,99142.54
2018-06-14T12:38:26.089Z,99146.09
2018-06-14T12:40:56.520Z,99146.75
2018-06-14T12:43:26.970Z,99147.86
2018-06-14T12:45:57.322Z,99148.08
2018-06-14T12:48:27.654Z,99147.08
2018-06-14T12:50:58.027Z,99136.70
2018-06-14T12:53:28.333Z,99139.24
2018-06-14T12:55:58.860Z,99139.09
2018-06-14T12:58:29.088Z,99141.86
2018-06-14T13:01:02.806Z,99143.58
2018-06-14T13:03:37.206Z,99147.25
2018-06-14T13:06:09.125Z,99145.03
2018-06-14T13:08:40.552Z,99147.52
2018-06-14T13:11:11.478Z,99149.23
2018-06-14T13:13:41.737Z,99155.43
2018-06-14T13:16:17.139Z,99154.89
2018-06-14T13:18:47.924Z,99153.27
2018-06-14T13:21:19.886Z,99152.68
2018-06-14T13:23:50.730Z,99142.50
2018-06-14T13:26:24.775Z,99151.64
2018-06-14T13:28:55.262Z,99150.08
2018-06-14T13:31:27.153Z,99144.89
2018-06-14T13:33:58.381Z,99143.36
2018-06-14T13:36:31.870Z,99139.27
2018-06-14T13:39:02.185Z,99142.55
2018-06-14T13:41:32.573Z,99140.92
2018-06-14T13:44:02.807Z,99133.63
2018-06-14T13:46:36.242Z,99136.24
2018-06-14T13:49:06.703Z,99141.91
2018-06-14T13:51:37.059Z,99134.27
2018-06-14T13:54:07.397Z,99131.00
2018-06-14T13:56:38.981Z,99132.34
2018-06-14T13:59:09.207Z,99125.12
2018-06-14T14:01:39.541Z,99125.04
2018-06-14T14:04:10.006Z,99127.70
2018-06-14T14:06:41.354Z,99120.84
2018-06-14T14:09:11.738Z,99118.19
2018-06-14T14:11:42.024Z,99120.56
2018-06-14T14:14:12.288Z,99123.20
2018-06-14T14:16:42.709Z,99112.19
2018-06-14T14:19:13.144Z,99108.38
2018-06-14T14:21:43.480Z,99107.11
2018-06-14T14:24:13.726Z,99106.29
2018-06-14T14:26:47.647Z,99110.75
2018-06-14T14:29:18.085Z,99100.91
2018-06-14T14:31:48.366Z,99109.78
2018-06-14T14:34:18.826Z,99102.11
2018-06-14T14:36:52.665Z,99105.56
2018-06-14T14:39:23.111Z,99104.66
2018-06-14T14:41:53.442Z,99107.20
2018-06-14T14:44:23.746Z,99102.75
2018-06-14T14:46:57.769Z,99112.22
2018-06-14T14:49:28.058Z,99109.22
2018-06-14T14:51:58.521Z,99101.75
2018-06-14T14:54:28.773Z,99097.04
2018-06-14T14:57:02.742Z,99090.61
2018-06-14T14:59:33.202Z,99100.83
2018-06-14T15:02:03.609Z,99089.43
2018-06-14T15:04:34.118Z,99079.89
2018-06-14T15:07:05.637Z,99084.13
2018-06-14T15:09:36.058Z,99082.41
2018-06-14T15:12:06.338Z,99082.84
2018-06-14T15:14:36.798Z,99083.44
2018-06-14T15:17:08.279Z,99090.66
2018-06-14T15:19:38.706Z,99091.47
2018-06-14T15:22:09.038Z,99090.07
2018-06-14T15:24:39.382Z,99093.06
2018-06-14T15:27:10.896Z,99095.69
2018-06-14T15:29:41.104Z,99098.18
2018-06-14T15:32:11.343Z,99107.27
2018-06-14T15:34:41.732Z,99123.19
2018-06-14T15:37:17.909Z,99120.14
2018-06-14T15:39:48.368Z,99124.11
2018-06-14T15:42:18.736Z,99121.67
2018-06-14T15:44:49.014Z,99128.64
2018-06-14T15:47:23.053Z,99131.76
2018-06-14T15:49:53.449Z,99134.81
2018-06-14T15:52:23.809Z,99126.42
2018-06-14T15:54:53.456Z,99129.80
2018-06-14T15:57:23.797Z,99137.33
2018-06-14T15:59:54.260Z,99136.34
2018-06-14T16:02:24.558Z,99139.77
2018-06-14T16:04:54.987Z,99143.22
2018-06-14T16:07:25.783Z,99145.14
2018-06-14T16:09:56.354Z,99137.66
2018-06-14T16:12:26.555Z,99139.94
2018-06-14T16:14:56.995Z,99140.05
2018-06-14T16:17:30.977Z,99139.75
2018-06-14T16:20:02.987Z,99143.38
2018-06-14T16:22:33.433Z,99147.33
2018-06-14T16:25:03.901Z,99148.92
2018-06-14T16:27:38.014Z,99144.12
2018-06-14T16:30:14.952Z,99139.50
2018-06-14T16:32:50.803Z,99140.68
2018-06-14T16:35:25.059Z,99140.25
2018-06-14T16:38:00.382Z,99138.91
2018-06-14T16:40:31.519Z,99145.97
2018-06-14T16:43:04.963Z,99153.49
2018-06-14T16:45:42.136Z,99152.31
2018-06-14T16:48:15.689Z,99161.47
2018-06-14T16:50:46.475Z,99163.43
2018-06-14T16:53:17.388Z,99167.52
2018-06-14T16:55:51.550Z,99165.64
2018-06-14T16:58:21.932Z,99173.70
2018-06-14T17:00:52.284Z,99171.30
2018-06-14T17:03:22.700Z,99172.55
2018-06-14T17:05:56.681Z,99170.16
2018-06-14T17:08:27.112Z,99169.34
2018-06-14T17:10:57.577Z,99169.23
2018-06-14T17:13:28.086Z,99170.84
2018-06-14T17:15:59.483Z,99174.48
2018-06-14T17:18:29.810Z,99179.09
2018-06-14T17:21:00.292Z,99182.80
2018-06-14T17:23:30.787Z,99189.75
2018-06-14T17:26:04.614Z,99196.35
2018-06-14T17:28:35.213Z,99197.95
2018-06-14T17:31:05.639Z,99190.99
2018-06-14T17:33:36.088Z,99190.83
2018-06-14T17:36:06.597Z,99188.30
2018-06-14T17:38:36.777Z,99187.63
2018-06-14T17:41:07.377Z,99189.94
2018-06-14T17:43:37.869Z,99185.53
2018-06-14T17:46:08.507Z,99182.78
2018-06-14T17:48:38.998Z,99191.85
2018-06-14T17:51:09.938Z,99196.11
2018-06-14T17:56:28.145Z,99202.23
2018-06-14T17:59:00.427Z,99211.01
2018-06-14T18:01:35.773Z,99213.69
2018-06-14T18:04:10.194Z,99222.09
2018-06-14T18:06:46.258Z,99222.72
2018-06-14T18:09:16.791Z,99214.13
2018-06-14T18:11:47.230Z,99219.95
2018-06-14T18:14:17.887Z,99221.77
2018-06-14T18:16:48.618Z,99235.59
2018-06-14T18:19:19.129Z,99242.64
2018-06-14T18:21:49.331Z,99241.67
2018-06-14T18:24:19.579Z,99249.55
2018-06-14T18:26:50.298Z,99252.06
2018-06-14T18:31:28.577Z,99248.34
2018-06-14T18:36:05.297Z,99248.36
2018-06-14T18:40:44.844Z,99260.64
2018-06-14T18:45:22.047Z,99263.63
2018-06-14T18:49:59.316Z,99270.66
2018-06-14T18:54:36.163Z,99266.91
2018-06-14T18:59:13.996Z,99274.48
2018-06-14T19:03:50.733Z,99282.07
2018-06-14T19:08:27.835Z,99272.23
2018-06-14T19:13:04.731Z,99277.94
2018-06-14T19:17:41.739Z,99286.98
2018-06-14T19:22:18.580Z,99287.28
2018-06-14T19:26:57.385Z,99302.47
2018-06-14T19:31:34.355Z,99298.23
2018-06-14T19:36:11.349Z,99289.66
2018-06-14T19:40:48.129Z,99299.58
2018-06-14T19:45:27.189Z,99303.83
2018-06-14T19:50:09.876Z,99310.30
2018-06-14T19:54:46.877Z,99303.23
2018-06-14T19:59:23.592Z,99291.78
2018-06-14T20:04:00.435Z,99295.62
2018-06-14T20:08:37.293Z,99298.15
2018-06-14T20:13:14.062Z,99298.04
2018-06-14T20:17:51.163Z,99293.66
2018-06-14T20:22:27.990Z,99294.52
2018-06-14T20:27:04.704Z,99289.38
2018-06-14T20:32:34.575Z,99283.83
2018-06-14T20:37:13.414Z,99279.94
2018-06-14T20:41:51.969Z,99279.92
2018-06-14T20:46:31.712Z,99274.63
2018-06-14T20:51:10.242Z,99267.44
2018-06-14T20:55:50.052Z,99282.48
2018-06-14T21:00:29.286Z,99288.48
2018-06-14T21:05:08.237Z,99290.95
2018-06-14T21:09:46.944Z,99288.84
2018-06-14T21:14:25.606Z,99284.94
2018-06-14T21:19:04.213Z,99284.04
2018-06-14T21:23:42.765Z,99285.13
2018-06-14T21:28:21.413Z,99278.06
2018-06-14T21:32:59.949Z,99272.22
2018-06-14T21:37:38.609Z,99269.89
2018-06-14T21:42:17.115Z,99276.41
2018-06-14T21:46:55.999Z,99274.64
2018-06-14T21:51:34.475Z,99275.33
2018-06-14T21:56:13.261Z,99263.22
2018-06-14T22:00:51.850Z,99267.05
2018-06-14T22:05:30.564Z,99258.61
2018-06-14T22:10:09.138Z,99259.40
2018-06-14T22:14:47.881Z,99259.22
2018-06-14T22:19:26.179Z,99262.03
2018-06-14T22:24:04.717Z,99257.86
2018-06-14T22:28:43.497Z,99259.48
2018-06-14T22:35:36.513Z,99260.84
2018-06-14T22:40:15.065Z,99241.33
2018-06-14T22:44:53.716Z,99238.27
2018-06-14T22:49:32.275Z,99224.27
2018-06-14T22:54:10.858Z,99228.27
2018-06-14T22:58:49.420Z,99228.23
2018-06-14T23:03:27.913Z,99228.67
2018-06-14T23:08:07.599Z,99237.75
2018-06-14T23:12:46.885Z,99234.11
2018-06-14T23:17:29.291Z,99227.74
2018-06-14T23:22:07.938Z,99231.59
2018-06-14T23:26:46.686Z,99224.30
2018-06-14T23:31:25.345Z,99220.58
2018-06-14T23:36:03.986Z,99224.68
2018-06-14T23:40:42.545Z,99223.08
2018-06-14T23:45:21.228Z,99209.98
2018-06-14T23:49:59.704Z,99212.19
2018-06-14T23:54:39.433Z,99206.68
2018-06-14T23:59:18.036Z,99205.60
